sensor_id;sensor_type;location;lat;lon;timestamp;P1;durP1;ratioP1;P2;durP2;ratioP2
46288;SDS011;63105;46.158;14.604;2023-07-31T00:01:50;2.20;;;0.70;;
46288;SDS011;63105;46.158;14.604;2023-07-31T00:04:15;1.23;;;0.67;;
46288;SDS011;63105;46.158;14.604;2023-07-31T00:06:41;1.80;;;0.80;;
46288;SDS011;63105;46.158;14.604;2023-07-31T00:09:06;2.00;;;0.80;;
46288;SDS011;63105;46.158;14.604;2023-07-31T00:11:31;2.27;;;1.00;;
46288;SDS011;63105;46.158;14.604;2023-07-31T00:13:56;2.95;;;1.00;;
46288;SDS011;63105;46.158;14.604;2023-07-31T00:16:21;1.90;;;0.90;;
46288;SDS011;63105;46.158;14.604;2023-07-31T00:18:47;1.90;;;0.90;;
46288;SDS011;63105;46.158;14.604;2023-07-31T00:21:12;1.45;;;0.80;;
46288;SDS011;63105;46.158;14.604;2023-07-31T00:23:37;2.17;;;0.90;;
46288;SDS011;63105;46.158;14.604;2023-07-31T00:26:02;2.13;;;1.00;;
46288;SDS011;63105;46.158;14.604;2023-07-31T00:28:28;2.37;;;0.90;;
46288;SDS011;63105;46.158;14.604;2023-07-31T00:30:53;1.80;;;0.80;;
46288;SDS011;63105;46.158;14.604;2023-07-31T00:33:19;1.95;;;0.82;;
46288;SDS011;63105;46.158;14.604;2023-07-31T00:35:44;1.60;;;0.67;;
46288;SDS011;63105;46.158;14.604;2023-07-31T00:38:09;2.08;;;0.93;;
46288;SDS011;63105;46.158;14.604;2023-07-31T00:40:35;1.60;;;0.90;;
46288;SDS011;63105;46.158;14.604;2023-07-31T00:43:01;2.63;;;0.90;;
46288;SDS011;63105;46.158;14.604;2023-07-31T00:45:26;2.10;;;1.00;;
46288;SDS011;63105;46.158;14.604;2023-07-31T00:47:53;1.67;;;0.80;;
46288;SDS011;63105;46.158;14.604;2023-07-31T00:50:18;1.87;;;0.90;;
46288;SDS011;63105;46.158;14.604;2023-07-31T00:52:44;2.10;;;1.00;;
46288;SDS011;63105;46.158;14.604;2023-07-31T00:55:09;2.47;;;1.00;;
46288;SDS011;63105;46.158;14.604;2023-07-31T00:57:34;1.73;;;0.80;;
46288;SDS011;63105;46.158;14.604;2023-07-31T01:00:01;3.08;;;0.90;;
46288;SDS011;63105;46.158;14.604;2023-07-31T01:02:28;3.17;;;1.00;;
46288;SDS011;63105;46.158;14.604;2023-07-31T01:04:53;2.00;;;0.88;;
46288;SDS011;63105;46.158;14.604;2023-07-31T01:12:13;2.63;;;0.97;;
46288;SDS011;63105;46.158;14.604;2023-07-31T01:14:39;2.00;;;0.90;;
46288;SDS011;63105;46.158;14.604;2023-07-31T01:17:04;3.23;;;1.00;;
46288;SDS011;63105;46.158;14.604;2023-07-31T01:19:29;2.53;;;0.88;;
46288;SDS011;63105;46.158;14.604;2023-07-31T01:26:47;2.28;;;0.90;;
46288;SDS011;63105;46.158;14.604;2023-07-31T01:29:22;2.30;;;1.00;;
46288;SDS011;63105;46.158;14.604;2023-07-31T01:31:48;2.60;;;0.90;;
46288;SDS011;63105;46.158;14.604;2023-07-31T01:34:14;2.17;;;0.90;;
46288;SDS011;63105;46.158;14.604;2023-07-31T01:36:40;1.52;;;0.90;;
46288;SDS011;63105;46.158;14.604;2023-07-31T01:39:06;1.33;;;0.70;;
46288;SDS011;63105;46.158;14.604;2023-07-31T01:41:31;2.33;;;0.90;;
46288;SDS011;63105;46.158;14.604;2023-07-31T01:43:56;2.27;;;1.03;;
46288;SDS011;63105;46.158;14.604;2023-07-31T01:46:21;2.05;;;0.98;;
46288;SDS011;63105;46.158;14.604;2023-07-31T01:48:47;1.70;;;0.80;;
46288;SDS011;63105;46.158;14.604;2023-07-31T01:51:12;2.55;;;0.90;;
46288;SDS011;63105;46.158;14.604;2023-07-31T01:53:37;2.10;;;0.93;;
46288;SDS011;63105;46.158;14.604;2023-07-31T01:56:02;2.13;;;0.90;;
46288;SDS011;63105;46.158;14.604;2023-07-31T01:58:28;1.55;;;0.80;;
46288;SDS011;63105;46.158;14.604;2023-07-31T02:00:53;1.42;;;0.75;;
46288;SDS011;63105;46.158;14.604;2023-07-31T02:03:18;1.60;;;0.80;;
46288;SDS011;63105;46.158;14.604;2023-07-31T02:05:47;2.30;;;1.00;;
46288;SDS011;63105;46.158;14.604;2023-07-31T02:08:13;2.03;;;0.90;;
46288;SDS011;63105;46.158;14.604;2023-07-31T02:10:38;1.95;;;0.70;;
46288;SDS011;63105;46.158;14.604;2023-07-31T02:13:03;1.67;;;0.87;;
46288;SDS011;63105;46.158;14.604;2023-07-31T02:15:29;1.77;;;0.80;;
46288;SDS011;63105;46.158;14.604;2023-07-31T02:17:54;2.40;;;0.90;;
46288;SDS011;63105;46.158;14.604;2023-07-31T02:20:20;2.90;;;1.00;;
46288;SDS011;63105;46.158;14.604;2023-07-31T02:22:45;1.73;;;0.90;;
46288;SDS011;63105;46.158;14.604;2023-07-31T02:25:10;2.00;;;0.77;;
46288;SDS011;63105;46.158;14.604;2023-07-31T02:27:35;1.40;;;0.77;;
46288;SDS011;63105;46.158;14.604;2023-07-31T02:30:00;1.97;;;0.93;;
46288;SDS011;63105;46.158;14.604;2023-07-31T02:32:26;3.13;;;1.00;;
46288;SDS011;63105;46.158;14.604;2023-07-31T02:34:51;1.53;;;0.80;;
46288;SDS011;63105;46.158;14.604;2023-07-31T02:37:16;2.17;;;0.90;;
46288;SDS011;63105;46.158;14.604;2023-07-31T02:39:41;2.93;;;0.80;;
46288;SDS011;63105;46.158;14.604;2023-07-31T02:42:06;3.13;;;1.00;;
46288;SDS011;63105;46.158;14.604;2023-07-31T02:44:32;2.47;;;0.80;;
46288;SDS011;63105;46.158;14.604;2023-07-31T02:46:57;2.60;;;0.93;;
46288;SDS011;63105;46.158;14.604;2023-07-31T02:49:22;2.23;;;0.80;;
46288;SDS011;63105;46.158;14.604;2023-07-31T02:51:47;1.88;;;0.95;;
46288;SDS011;63105;46.158;14.604;2023-07-31T02:54:12;2.60;;;0.93;;
46288;SDS011;63105;46.158;14.604;2023-07-31T02:56:38;2.83;;;1.33;;
46288;SDS011;63105;46.158;14.604;2023-07-31T02:59:03;1.73;;;0.80;;
46288;SDS011;63105;46.158;14.604;2023-07-31T03:01:28;2.13;;;1.00;;
46288;SDS011;63105;46.158;14.604;2023-07-31T03:03:53;2.83;;;1.10;;
46288;SDS011;63105;46.158;14.604;2023-07-31T03:06:18;1.90;;;0.90;;
46288;SDS011;63105;46.158;14.604;2023-07-31T03:08:44;2.73;;;1.03;;
46288;SDS011;63105;46.158;14.604;2023-07-31T03:11:09;2.77;;;0.97;;
46288;SDS011;63105;46.158;14.604;2023-07-31T03:13:34;2.38;;;1.00;;
46288;SDS011;63105;46.158;14.604;2023-07-31T03:15:59;2.10;;;1.00;;
46288;SDS011;63105;46.158;14.604;2023-07-31T03:18:24;1.93;;;0.90;;
46288;SDS011;63105;46.158;14.604;2023-07-31T03:20:50;2.10;;;0.97;;
46288;SDS011;63105;46.158;14.604;2023-07-31T03:23:15;2.17;;;0.90;;
46288;SDS011;63105;46.158;14.604;2023-07-31T03:25:41;2.20;;;0.77;;
46288;SDS011;63105;46.158;14.604;2023-07-31T03:28:19;2.95;;;1.00;;
46288;SDS011;63105;46.158;14.604;2023-07-31T03:30:45;2.47;;;1.10;;
46288;SDS011;63105;46.158;14.604;2023-07-31T03:33:10;3.00;;;0.90;;
46288;SDS011;63105;46.158;14.604;2023-07-31T03:35:35;1.90;;;0.90;;
46288;SDS011;63105;46.158;14.604;2023-07-31T03:38:00;4.00;;;1.00;;
46288;SDS011;63105;46.158;14.604;2023-07-31T03:40:25;1.80;;;0.90;;
46288;SDS011;63105;46.158;14.604;2023-07-31T03:42:51;1.83;;;0.90;;
46288;SDS011;63105;46.158;14.604;2023-07-31T03:45:16;2.37;;;1.00;;
46288;SDS011;63105;46.158;14.604;2023-07-31T03:47:41;2.85;;;1.00;;
46288;SDS011;63105;46.158;14.604;2023-07-31T03:50:06;2.30;;;1.17;;
46288;SDS011;63105;46.158;14.604;2023-07-31T03:52:32;2.90;;;1.00;;
46288;SDS011;63105;46.158;14.604;2023-07-31T03:54:57;2.42;;;0.90;;
46288;SDS011;63105;46.158;14.604;2023-07-31T03:57:22;2.10;;;0.97;;
46288;SDS011;63105;46.158;14.604;2023-07-31T03:59:48;2.17;;;0.93;;
46288;SDS011;63105;46.158;14.604;2023-07-31T04:02:13;1.90;;;0.90;;
46288;SDS011;63105;46.158;14.604;2023-07-31T04:04:39;2.80;;;0.90;;
46288;SDS011;63105;46.158;14.604;2023-07-31T04:07:04;1.92;;;0.90;;
46288;SDS011;63105;46.158;14.604;2023-07-31T04:09:29;2.28;;;0.93;;
46288;SDS011;63105;46.158;14.604;2023-07-31T04:11:54;1.57;;;0.80;;
46288;SDS011;63105;46.158;14.604;2023-07-31T04:14:20;2.47;;;0.90;;
46288;SDS011;63105;46.158;14.604;2023-07-31T04:16:45;1.60;;;0.82;;
46288;SDS011;63105;46.158;14.604;2023-07-31T04:19:10;2.47;;;0.97;;
46288;SDS011;63105;46.158;14.604;2023-07-31T04:21:35;1.77;;;0.90;;
46288;SDS011;63105;46.158;14.604;2023-07-31T04:24:01;2.60;;;0.87;;
46288;SDS011;63105;46.158;14.604;2023-07-31T04:26:26;1.53;;;0.80;;
46288;SDS011;63105;46.158;14.604;2023-07-31T04:28:51;2.13;;;1.00;;
46288;SDS011;63105;46.158;14.604;2023-07-31T04:31:16;2.88;;;1.10;;
46288;SDS011;63105;46.158;14.604;2023-07-31T04:33:42;2.27;;;0.90;;
46288;SDS011;63105;46.158;14.604;2023-07-31T04:36:07;1.47;;;0.70;;
46288;SDS011;63105;46.158;14.604;2023-07-31T04:38:32;1.90;;;0.80;;
46288;SDS011;63105;46.158;14.604;2023-07-31T04:40:57;2.40;;;1.10;;
46288;SDS011;63105;46.158;14.604;2023-07-31T04:43:23;3.55;;;1.15;;
46288;SDS011;63105;46.158;14.604;2023-07-31T04:45:48;1.67;;;0.77;;
46288;SDS011;63105;46.158;14.604;2023-07-31T04:48:14;3.38;;;0.90;;
46288;SDS011;63105;46.158;14.604;2023-07-31T04:50:40;1.93;;;1.00;;
46288;SDS011;63105;46.158;14.604;2023-07-31T04:53:05;2.30;;;0.98;;
46288;SDS011;63105;46.158;14.604;2023-07-31T04:55:30;1.80;;;0.80;;
46288;SDS011;63105;46.158;14.604;2023-07-31T04:57:55;3.03;;;0.90;;
46288;SDS011;63105;46.158;14.604;2023-07-31T05:00:20;1.77;;;0.70;;
46288;SDS011;63105;46.158;14.604;2023-07-31T05:02:46;2.40;;;0.87;;
46288;SDS011;63105;46.158;14.604;2023-07-31T05:05:11;2.03;;;0.93;;
46288;SDS011;63105;46.158;14.604;2023-07-31T05:07:36;2.47;;;1.03;;
46288;SDS011;63105;46.158;14.604;2023-07-31T05:10:02;4.07;;;1.42;;
46288;SDS011;63105;46.158;14.604;2023-07-31T05:12:27;2.80;;;1.20;;
46288;SDS011;63105;46.158;14.604;2023-07-31T05:14:52;5.33;;;1.30;;
46288;SDS011;63105;46.158;14.604;2023-07-31T05:17:17;3.30;;;1.20;;
46288;SDS011;63105;46.158;14.604;2023-07-31T05:19:42;3.50;;;1.27;;
46288;SDS011;63105;46.158;14.604;2023-07-31T05:22:08;3.55;;;1.30;;
46288;SDS011;63105;46.158;14.604;2023-07-31T05:24:33;2.07;;;1.00;;
46288;SDS011;63105;46.158;14.604;2023-07-31T05:26:58;3.17;;;1.00;;
46288;SDS011;63105;46.158;14.604;2023-07-31T05:29:23;2.70;;;1.10;;
46288;SDS011;63105;46.158;14.604;2023-07-31T05:31:49;2.33;;;1.10;;
46288;SDS011;63105;46.158;14.604;2023-07-31T05:34:14;3.43;;;0.90;;
46288;SDS011;63105;46.158;14.604;2023-07-31T05:36:39;2.07;;;1.00;;
46288;SDS011;63105;46.158;14.604;2023-07-31T05:39:04;2.10;;;1.00;;
46288;SDS011;63105;46.158;14.604;2023-07-31T05:41:33;1.83;;;0.90;;
46288;SDS011;63105;46.158;14.604;2023-07-31T05:43:58;2.67;;;0.90;;
46288;SDS011;63105;46.158;14.604;2023-07-31T05:46:23;3.42;;;1.17;;
46288;SDS011;63105;46.158;14.604;2023-07-31T05:48:48;2.50;;;1.20;;
46288;SDS011;63105;46.158;14.604;2023-07-31T05:51:15;2.22;;;1.17;;
46288;SDS011;63105;46.158;14.604;2023-07-31T05:53:40;3.42;;;1.25;;
46288;SDS011;63105;46.158;14.604;2023-07-31T05:56:06;3.37;;;1.40;;
46288;SDS011;63105;46.158;14.604;2023-07-31T05:58:31;3.15;;;1.40;;
46288;SDS011;63105;46.158;14.604;2023-07-31T06:00:56;2.93;;;1.20;;
46288;SDS011;63105;46.158;14.604;2023-07-31T06:03:21;2.40;;;1.10;;
46288;SDS011;63105;46.158;14.604;2023-07-31T06:05:46;2.10;;;1.00;;
46288;SDS011;63105;46.158;14.604;2023-07-31T06:08:12;3.03;;;1.23;;
46288;SDS011;63105;46.158;14.604;2023-07-31T06:10:37;3.07;;;1.30;;
46288;SDS011;63105;46.158;14.604;2023-07-31T06:13:02;2.38;;;1.10;;
46288;SDS011;63105;46.158;14.604;2023-07-31T06:15:27;3.30;;;1.03;;
46288;SDS011;63105;46.158;14.604;2023-07-31T06:17:53;2.43;;;1.03;;
46288;SDS011;63105;46.158;14.604;2023-07-31T06:20:18;4.60;;;1.40;;
46288;SDS011;63105;46.158;14.604;2023-07-31T06:22:43;2.43;;;1.20;;
46288;SDS011;63105;46.158;14.604;2023-07-31T06:25:08;3.03;;;1.10;;
46288;SDS011;63105;46.158;14.604;2023-07-31T06:27:34;3.67;;;1.42;;
46288;SDS011;63105;46.158;14.604;2023-07-31T06:29:59;3.23;;;1.50;;
46288;SDS011;63105;46.158;14.604;2023-07-31T06:32:24;2.10;;;1.00;;
46288;SDS011;63105;46.158;14.604;2023-07-31T06:34:49;3.10;;;1.45;;
46288;SDS011;63105;46.158;14.604;2023-07-31T06:37:15;2.38;;;1.17;;
46288;SDS011;63105;46.158;14.604;2023-07-31T06:39:40;3.20;;;1.17;;
46288;SDS011;63105;46.158;14.604;2023-07-31T06:42:05;3.47;;;1.40;;
46288;SDS011;63105;46.158;14.604;2023-07-31T06:44:30;4.65;;;1.45;;
46288;SDS011;63105;46.158;14.604;2023-07-31T06:46:56;2.75;;;1.13;;
46288;SDS011;63105;46.158;14.604;2023-07-31T06:49:21;2.60;;;0.93;;
46288;SDS011;63105;46.158;14.604;2023-07-31T06:51:46;4.63;;;1.30;;
46288;SDS011;63105;46.158;14.604;2023-07-31T06:54:11;2.43;;;1.13;;
46288;SDS011;63105;46.158;14.604;2023-07-31T06:56:37;3.00;;;1.10;;
46288;SDS011;63105;46.158;14.604;2023-07-31T06:59:05;3.33;;;1.60;;
46288;SDS011;63105;46.158;14.604;2023-07-31T07:01:30;3.37;;;1.50;;
46288;SDS011;63105;46.158;14.604;2023-07-31T07:03:55;7.03;;;1.67;;
46288;SDS011;63105;46.158;14.604;2023-07-31T07:06:21;3.97;;;1.77;;
46288;SDS011;63105;46.158;14.604;2023-07-31T07:08:47;3.63;;;1.45;;
46288;SDS011;63105;46.158;14.604;2023-07-31T07:11:12;4.03;;;1.70;;
46288;SDS011;63105;46.158;14.604;2023-07-31T07:13:38;2.40;;;1.30;;
46288;SDS011;63105;46.158;14.604;2023-07-31T07:16:03;3.72;;;1.30;;
46288;SDS011;63105;46.158;14.604;2023-07-31T07:18:28;2.80;;;1.20;;
46288;SDS011;63105;46.158;14.604;2023-07-31T07:20:54;4.43;;;1.67;;
46288;SDS011;63105;46.158;14.604;2023-07-31T07:23:19;3.65;;;1.58;;
46288;SDS011;63105;46.158;14.604;2023-07-31T07:25:45;4.05;;;1.45;;
46288;SDS011;63105;46.158;14.604;2023-07-31T07:28:11;3.80;;;2.03;;
46288;SDS011;63105;46.158;14.604;2023-07-31T07:30:36;5.82;;;3.20;;
46288;SDS011;63105;46.158;14.604;2023-07-31T07:33:02;5.47;;;3.20;;
46288;SDS011;63105;46.158;14.604;2023-07-31T07:35:27;5.35;;;2.75;;
46288;SDS011;63105;46.158;14.604;2023-07-31T07:37:52;4.33;;;2.00;;
46288;SDS011;63105;46.158;14.604;2023-07-31T07:40:18;4.13;;;1.80;;
46288;SDS011;63105;46.158;14.604;2023-07-31T07:42:44;3.47;;;1.50;;
46288;SDS011;63105;46.158;14.604;2023-07-31T07:45:09;2.87;;;1.20;;
46288;SDS011;63105;46.158;14.604;2023-07-31T07:47:34;2.65;;;1.42;;
46288;SDS011;63105;46.158;14.604;2023-07-31T07:49:59;3.13;;;1.40;;
46288;SDS011;63105;46.158;14.604;2023-07-31T07:52:25;3.37;;;1.60;;
46288;SDS011;63105;46.158;14.604;2023-07-31T07:54:50;3.30;;;1.30;;
46288;SDS011;63105;46.158;14.604;2023-07-31T07:57:15;2.65;;;1.08;;
46288;SDS011;63105;46.158;14.604;2023-07-31T07:59:41;2.33;;;1.07;;
46288;SDS011;63105;46.158;14.604;2023-07-31T08:02:07;2.40;;;1.10;;
46288;SDS011;63105;46.158;14.604;2023-07-31T08:04:32;2.50;;;1.20;;
46288;SDS011;63105;46.158;14.604;2023-07-31T08:06:57;2.33;;;1.20;;
46288;SDS011;63105;46.158;14.604;2023-07-31T08:09:22;2.20;;;1.10;;
46288;SDS011;63105;46.158;14.604;2023-07-31T08:11:47;3.83;;;1.10;;
46288;SDS011;63105;46.158;14.604;2023-07-31T08:14:13;2.50;;;1.10;;
46288;SDS011;63105;46.158;14.604;2023-07-31T08:16:38;2.63;;;1.13;;
46288;SDS011;63105;46.158;14.604;2023-07-31T08:19:03;5.40;;;1.50;;
46288;SDS011;63105;46.158;14.604;2023-07-31T08:21:28;3.10;;;1.30;;
46288;SDS011;63105;46.158;14.604;2023-07-31T08:23:54;3.60;;;1.30;;
46288;SDS011;63105;46.158;14.604;2023-07-31T08:26:20;3.13;;;1.23;;
46288;SDS011;63105;46.158;14.604;2023-07-31T08:28:45;2.40;;;1.00;;
46288;SDS011;63105;46.158;14.604;2023-07-31T08:31:11;2.75;;;1.20;;
46288;SDS011;63105;46.158;14.604;2023-07-31T08:33:36;2.20;;;1.10;;
46288;SDS011;63105;46.158;14.604;2023-07-31T08:36:02;2.30;;;1.23;;
46288;SDS011;63105;46.158;14.604;2023-07-31T08:38:27;2.50;;;1.17;;
46288;SDS011;63105;46.158;14.604;2023-07-31T08:40:54;2.50;;;1.20;;
46288;SDS011;63105;46.158;14.604;2023-07-31T08:43:20;2.57;;;1.20;;
46288;SDS011;63105;46.158;14.604;2023-07-31T08:45:45;2.47;;;1.20;;
46288;SDS011;63105;46.158;14.604;2023-07-31T08:48:11;2.15;;;1.20;;
46288;SDS011;63105;46.158;14.604;2023-07-31T08:50:36;2.33;;;1.10;;
46288;SDS011;63105;46.158;14.604;2023-07-31T08:53:02;2.78;;;0.98;;
46288;SDS011;63105;46.158;14.604;2023-07-31T08:55:27;2.10;;;1.00;;
46288;SDS011;63105;46.158;14.604;2023-07-31T08:57:53;2.40;;;1.10;;
46288;SDS011;63105;46.158;14.604;2023-07-31T09:00:19;2.30;;;0.90;;
46288;SDS011;63105;46.158;14.604;2023-07-31T09:02:46;2.38;;;1.00;;
46288;SDS011;63105;46.158;14.604;2023-07-31T09:05:13;2.33;;;1.02;;
46288;SDS011;63105;46.158;14.604;2023-07-31T09:07:39;2.13;;;0.98;;
46288;SDS011;63105;46.158;14.604;2023-07-31T09:10:05;2.35;;;0.90;;
46288;SDS011;63105;46.158;14.604;2023-07-31T09:12:31;2.22;;;1.00;;
46288;SDS011;63105;46.158;14.604;2023-07-31T09:14:56;1.88;;;0.93;;
46288;SDS011;63105;46.158;14.604;2023-07-31T09:17:28;2.28;;;1.10;;
46288;SDS011;63105;46.158;14.604;2023-07-31T09:19:55;2.20;;;0.93;;
46288;SDS011;63105;46.158;14.604;2023-07-31T09:22:31;1.92;;;0.90;;
46288;SDS011;63105;46.158;14.604;2023-07-31T09:24:56;2.30;;;0.90;;
46288;SDS011;63105;46.158;14.604;2023-07-31T09:27:21;1.90;;;1.00;;
46288;SDS011;63105;46.158;14.604;2023-07-31T09:29:46;2.83;;;1.10;;
46288;SDS011;63105;46.158;14.604;2023-07-31T09:32:23;1.88;;;0.88;;
46288;SDS011;63105;46.158;14.604;2023-07-31T09:34:49;1.48;;;0.80;;
46288;SDS011;63105;46.158;14.604;2023-07-31T09:37:15;1.80;;;1.00;;
46288;SDS011;63105;46.158;14.604;2023-07-31T09:39:46;1.90;;;0.93;;
46288;SDS011;63105;46.158;14.604;2023-07-31T09:42:12;3.20;;;1.20;;
46288;SDS011;63105;46.158;14.604;2023-07-31T09:44:38;2.47;;;1.20;;
46288;SDS011;63105;46.158;14.604;2023-07-31T09:47:04;2.58;;;0.93;;
46288;SDS011;63105;46.158;14.604;2023-07-31T09:49:30;1.83;;;0.82;;
46288;SDS011;63105;46.158;14.604;2023-07-31T09:51:55;3.07;;;0.93;;
46288;SDS011;63105;46.158;14.604;2023-07-31T09:54:20;1.97;;;0.90;;
46288;SDS011;63105;46.158;14.604;2023-07-31T09:56:46;2.60;;;1.08;;
46288;SDS011;63105;46.158;14.604;2023-07-31T09:59:13;2.60;;;1.00;;
46288;SDS011;63105;46.158;14.604;2023-07-31T10:01:42;2.58;;;1.08;;
46288;SDS011;63105;46.158;14.604;2023-07-31T10:04:08;2.30;;;1.10;;
46288;SDS011;63105;46.158;14.604;2023-07-31T10:06:35;2.78;;;1.45;;
46288;SDS011;63105;46.158;14.604;2023-07-31T10:09:01;1.92;;;1.00;;
46288;SDS011;63105;46.158;14.604;2023-07-31T10:11:26;2.17;;;1.00;;
46288;SDS011;63105;46.158;14.604;2023-07-31T10:13:52;1.90;;;1.10;;
46288;SDS011;63105;46.158;14.604;2023-07-31T10:16:18;1.80;;;0.90;;
46288;SDS011;63105;46.158;14.604;2023-07-31T10:18:45;2.80;;;0.98;;
46288;SDS011;63105;46.158;14.604;2023-07-31T10:21:11;1.38;;;0.80;;
46288;SDS011;63105;46.158;14.604;2023-07-31T10:23:36;1.75;;;0.88;;
46288;SDS011;63105;46.158;14.604;2023-07-31T10:26:01;1.83;;;0.90;;
46288;SDS011;63105;46.158;14.604;2023-07-31T10:28:27;1.90;;;0.93;;
46288;SDS011;63105;46.158;14.604;2023-07-31T10:30:53;1.73;;;0.90;;
46288;SDS011;63105;46.158;14.604;2023-07-31T10:33:19;1.90;;;0.95;;
46288;SDS011;63105;46.158;14.604;2023-07-31T10:35:46;1.92;;;1.00;;
46288;SDS011;63105;46.158;14.604;2023-07-31T10:38:12;2.08;;;1.00;;
46288;SDS011;63105;46.158;14.604;2023-07-31T10:40:37;1.73;;;0.90;;
46288;SDS011;63105;46.158;14.604;2023-07-31T10:43:03;1.50;;;0.85;;
46288;SDS011;63105;46.158;14.604;2023-07-31T10:45:32;2.40;;;1.07;;
46288;SDS011;63105;46.158;14.604;2023-07-31T10:47:58;1.42;;;0.80;;
46288;SDS011;63105;46.158;14.604;2023-07-31T10:50:24;1.42;;;0.73;;
46288;SDS011;63105;46.158;14.604;2023-07-31T10:52:54;2.80;;;0.97;;
46288;SDS011;63105;46.158;14.604;2023-07-31T10:55:27;2.05;;;1.00;;
46288;SDS011;63105;46.158;14.604;2023-07-31T10:57:56;1.77;;;0.90;;
46288;SDS011;63105;46.158;14.604;2023-07-31T11:05:22;2.13;;;0.98;;
46288;SDS011;63105;46.158;14.604;2023-07-31T11:08:27;1.90;;;0.82;;
46288;SDS011;63105;46.158;14.604;2023-07-31T11:11:04;2.15;;;0.90;;
46288;SDS011;63105;46.158;14.604;2023-07-31T11:13:33;2.45;;;0.85;;
46288;SDS011;63105;46.158;14.604;2023-07-31T11:15:58;2.05;;;1.05;;
46288;SDS011;63105;46.158;14.604;2023-07-31T11:18:24;3.38;;;1.35;;
46288;SDS011;63105;46.158;14.604;2023-07-31T11:20:50;2.78;;;1.20;;
46288;SDS011;63105;46.158;14.604;2023-07-31T11:23:16;2.77;;;1.20;;
46288;SDS011;63105;46.158;14.604;2023-07-31T11:25:42;2.08;;;0.95;;
46288;SDS011;63105;46.158;14.604;2023-07-31T11:28:08;4.10;;;1.00;;
46288;SDS011;63105;46.158;14.604;2023-07-31T11:30:33;2.03;;;1.00;;
46288;SDS011;63105;46.158;14.604;2023-07-31T11:33:00;1.60;;;0.95;;
46288;SDS011;63105;46.158;14.604;2023-07-31T11:35:25;2.03;;;1.00;;
46288;SDS011;63105;46.158;14.604;2023-07-31T11:37:50;1.43;;;0.77;;
46288;SDS011;63105;46.158;14.604;2023-07-31T11:40:16;2.10;;;1.00;;
46288;SDS011;63105;46.158;14.604;2023-07-31T11:42:41;1.97;;;0.90;;
46288;SDS011;63105;46.158;14.604;2023-07-31T11:45:07;2.00;;;0.90;;
46288;SDS011;63105;46.158;14.604;2023-07-31T11:47:33;1.85;;;0.88;;
46288;SDS011;63105;46.158;14.604;2023-07-31T11:50:01;1.60;;;0.80;;
46288;SDS011;63105;46.158;14.604;2023-07-31T11:52:32;1.83;;;0.90;;
46288;SDS011;63105;46.158;14.604;2023-07-31T11:54:59;1.63;;;0.80;;
46288;SDS011;63105;46.158;14.604;2023-07-31T11:57:24;1.92;;;0.88;;
46288;SDS011;63105;46.158;14.604;2023-07-31T11:59:50;2.40;;;0.90;;
46288;SDS011;63105;46.158;14.604;2023-07-31T12:02:16;1.55;;;0.80;;
46288;SDS011;63105;46.158;14.604;2023-07-31T12:04:41;1.52;;;0.80;;
46288;SDS011;63105;46.158;14.604;2023-07-31T12:07:07;1.63;;;0.80;;
46288;SDS011;63105;46.158;14.604;2023-07-31T12:09:32;2.57;;;1.20;;
46288;SDS011;63105;46.158;14.604;2023-07-31T12:11:57;2.37;;;0.90;;
46288;SDS011;63105;46.158;14.604;2023-07-31T12:14:26;2.40;;;1.00;;
46288;SDS011;63105;46.158;14.604;2023-07-31T12:17:00;1.95;;;0.90;;
46288;SDS011;63105;46.158;14.604;2023-07-31T12:19:26;1.50;;;0.80;;
46288;SDS011;63105;46.158;14.604;2023-07-31T12:21:54;2.08;;;1.00;;
46288;SDS011;63105;46.158;14.604;2023-07-31T12:24:19;1.70;;;0.98;;
46288;SDS011;63105;46.158;14.604;2023-07-31T12:26:45;1.58;;;0.80;;
46288;SDS011;63105;46.158;14.604;2023-07-31T12:29:11;2.33;;;1.00;;
46288;SDS011;63105;46.158;14.604;2023-07-31T12:31:37;2.17;;;1.00;;
46288;SDS011;63105;46.158;14.604;2023-07-31T12:34:02;2.03;;;1.10;;
46288;SDS011;63105;46.158;14.604;2023-07-31T12:36:27;2.05;;;0.95;;
46288;SDS011;63105;46.158;14.604;2023-07-31T12:38:54;1.85;;;0.93;;
46288;SDS011;63105;46.158;14.604;2023-07-31T12:41:21;1.98;;;1.00;;
46288;SDS011;63105;46.158;14.604;2023-07-31T12:43:47;1.47;;;0.80;;
46288;SDS011;63105;46.158;14.604;2023-07-31T12:46:12;2.37;;;0.97;;
46288;SDS011;63105;46.158;14.604;2023-07-31T12:48:38;2.00;;;1.00;;
46288;SDS011;63105;46.158;14.604;2023-07-31T12:51:04;2.08;;;0.90;;
46288;SDS011;63105;46.158;14.604;2023-07-31T12:53:29;2.13;;;0.98;;
46288;SDS011;63105;46.158;14.604;2023-07-31T12:55:55;2.05;;;1.00;;
46288;SDS011;63105;46.158;14.604;2023-07-31T12:58:20;2.25;;;1.15;;
46288;SDS011;63105;46.158;14.604;2023-07-31T13:00:45;2.07;;;1.00;;
46288;SDS011;63105;46.158;14.604;2023-07-31T13:03:11;2.47;;;1.10;;
46288;SDS011;63105;46.158;14.604;2023-07-31T13:05:36;1.90;;;1.00;;
46288;SDS011;63105;46.158;14.604;2023-07-31T13:08:01;2.00;;;0.93;;
46288;SDS011;63105;46.158;14.604;2023-07-31T13:10:26;2.20;;;1.10;;
46288;SDS011;63105;46.158;14.604;2023-07-31T13:12:52;2.00;;;1.10;;
46288;SDS011;63105;46.158;14.604;2023-07-31T13:15:17;2.03;;;1.10;;
46288;SDS011;63105;46.158;14.604;2023-07-31T13:17:43;2.80;;;0.87;;
46288;SDS011;63105;46.158;14.604;2023-07-31T13:20:08;2.13;;;0.97;;
46288;SDS011;63105;46.158;14.604;2023-07-31T13:22:34;1.55;;;0.90;;
46288;SDS011;63105;46.158;14.604;2023-07-31T13:24:59;1.90;;;0.80;;
46288;SDS011;63105;46.158;14.604;2023-07-31T13:27:24;2.70;;;1.15;;
46288;SDS011;63105;46.158;14.604;2023-07-31T13:29:50;2.47;;;1.13;;
46288;SDS011;63105;46.158;14.604;2023-07-31T13:32:15;2.20;;;1.10;;
46288;SDS011;63105;46.158;14.604;2023-07-31T13:34:41;1.95;;;0.90;;
46288;SDS011;63105;46.158;14.604;2023-07-31T13:37:06;2.03;;;0.90;;
46288;SDS011;63105;46.158;14.604;2023-07-31T13:39:32;1.90;;;1.00;;
46288;SDS011;63105;46.158;14.604;2023-07-31T13:41:58;1.77;;;0.90;;
46288;SDS011;63105;46.158;14.604;2023-07-31T13:44:23;1.75;;;0.88;;
46288;SDS011;63105;46.158;14.604;2023-07-31T13:46:48;2.00;;;1.10;;
46288;SDS011;63105;46.158;14.604;2023-07-31T13:49:14;2.00;;;1.00;;
46288;SDS011;63105;46.158;14.604;2023-07-31T13:51:39;1.77;;;1.00;;
46288;SDS011;63105;46.158;14.604;2023-07-31T13:54:04;1.75;;;0.93;;
46288;SDS011;63105;46.158;14.604;2023-07-31T13:56:31;1.83;;;0.98;;
46288;SDS011;63105;46.158;14.604;2023-07-31T13:58:56;1.83;;;1.00;;
46288;SDS011;63105;46.158;14.604;2023-07-31T14:01:21;2.13;;;1.07;;
46288;SDS011;63105;46.158;14.604;2023-07-31T14:03:46;1.73;;;0.90;;
46288;SDS011;63105;46.158;14.604;2023-07-31T14:06:12;2.00;;;1.00;;
46288;SDS011;63105;46.158;14.604;2023-07-31T14:08:37;1.77;;;1.00;;
46288;SDS011;63105;46.158;14.604;2023-07-31T14:11:02;2.23;;;1.10;;
46288;SDS011;63105;46.158;14.604;2023-07-31T14:13:27;2.83;;;1.23;;
46288;SDS011;63105;46.158;14.604;2023-07-31T14:15:53;2.30;;;1.17;;
46288;SDS011;63105;46.158;14.604;2023-07-31T14:18:18;2.30;;;1.20;;
46288;SDS011;63105;46.158;14.604;2023-07-31T14:20:43;2.80;;;1.20;;
46288;SDS011;63105;46.158;14.604;2023-07-31T14:23:08;2.10;;;0.93;;
46288;SDS011;63105;46.158;14.604;2023-07-31T14:25:33;2.70;;;1.00;;
46288;SDS011;63105;46.158;14.604;2023-07-31T14:27:59;2.20;;;1.07;;
46288;SDS011;63105;46.158;14.604;2023-07-31T14:30:24;1.60;;;0.93;;
46288;SDS011;63105;46.158;14.604;2023-07-31T14:32:49;2.28;;;1.13;;
46288;SDS011;63105;46.158;14.604;2023-07-31T14:35:15;2.40;;;1.07;;
46288;SDS011;63105;46.158;14.604;2023-07-31T14:37:40;1.77;;;1.00;;
46288;SDS011;63105;46.158;14.604;2023-07-31T14:40:09;1.98;;;1.20;;